Time;durP1;ratioP1;P1;durP2;ratioP2;P2;SDS_P1;SDS_P2;PMS_P1;PMS_P2;Temp;Humidity;BMP_temperature;BMP_pressure;BME280_temperature;BME280_humidity;BME280_pressure;Samples;Min_cycle;Max_cycle;Signal;HPM_P1;HPM_P2
2022/03/12 00:03:43;;;;;;;27.00;20.42;;;;;;;;;;10301876;28;20031;-70
2022/03/12 00:08:44;;;;;;;48.95;25.25;;;;;;;;;;10285971;28;20033;-73
2022/03/12 00:13:45;;;;;;;43.30;26.40;;;;;;;;;;10302032;28;20566;-73
2022/03/12 00:18:47;;;;;;;44.00;23.50;;;;;;;;;;10284655;28;20051;-70
2022/03/12 00:23:50;;;;;;;39.03;22.20;;;;;;;;;;10286029;28;20030;-70
2022/03/12 00:28:54;;;;;;;33.05;23.67;;;;;;;;;;10301499;28;20031;-70
2022/03/12 00:33:55;;;;;;;42.25;23.00;;;;;;;;;;10258674;28;20544;-70
2022/03/12 00:38:55;;;;;;;28.55;22.67;;;;;;;;;;10266127;28;20034;-70
2022/03/12 00:43:55;;;;;;;25.47;18.13;;;;;;;;;;10284015;28;20034;-69
2022/03/12 00:48:55;;;;;;;31.67;15.98;;;;;;;;;;10291168;28;20046;-73
2022/03/12 00:53:56;;;;;;;26.75;17.33;;;;;;;;;;10289207;28;20034;-69
2022/03/12 00:58:57;;;;;;;26.38;19.67;;;;;;;;;;10283896;28;20031;-72
2022/03/12 01:03:58;;;;;;;24.17;15.75;;;;;;;;;;10284441;28;20098;-71
2022/03/12 01:08:58;;;;;;;26.27;16.30;;;;;;;;;;10284755;28;20034;-71
2022/03/12 01:13:59;;;;;;;17.23;14.90;;;;;;;;;;10284124;28;20045;-73
2022/03/12 01:18:59;;;;;;;19.92;13.38;;;;;;;;;;10282267;28;20059;-69
2022/03/12 01:23:59;;;;;;;18.47;10.40;;;;;;;;;;10298006;28;20035;-69
2022/03/12 01:29:00;;;;;;;18.03;14.43;;;;;;;;;;10297740;28;20457;-71
2022/03/12 01:34:00;;;;;;;13.75;11.57;;;;;;;;;;10287718;28;20504;-72
2022/03/12 01:39:01;;;;;;;22.13;13.32;;;;;;;;;;10298589;28;20026;-70
2022/03/12 01:44:02;;;;;;;15.88;10.68;;;;;;;;;;10298367;28;20029;-73
2022/03/12 01:49:04;;;;;;;14.57;10.52;;;;;;;;;;10266586;28;20085;-70
2022/03/12 01:54:05;;;;;;;9.82;8.60;;;;;;;;;;10298501;28;20030;-74
2022/03/12 01:59:06;;;;;;;12.75;7.18;;;;;;;;;;10282365;28;20030;-75
2022/03/12 02:04:07;;;;;;;12.23;9.38;;;;;;;;;;10280776;28;20019;-71
2022/03/12 02:09:09;;;;;;;11.65;7.40;;;;;;;;;;10275873;28;20497;-70
2022/03/12 02:14:13;;;;;;;10.48;8.95;;;;;;;;;;10277261;28;20018;-75
2022/03/12 02:19:14;;;;;;;13.27;9.52;;;;;;;;;;10298709;28;20051;-74
2022/03/12 02:24:15;;;;;;;12.97;11.63;;;;;;;;;;10282003;28;20070;-74
2022/03/12 02:29:20;;;;;;;9.80;8.80;;;;;;;;;;10281423;28;20328;-72
2022/03/12 02:34:24;;;;;;;14.23;8.77;;;;;;;;;;10251531;28;20454;-71
2022/03/12 02:39:27;;;;;;;11.43;7.32;;;;;;;;;;10243457;28;20023;-71
2022/03/12 02:44:28;;;;;;;9.98;6.15;;;;;;;;;;10242216;28;20088;-72
2022/03/12 02:49:28;;;;;;;8.00;6.63;;;;;;;;;;10266499;28;20495;-73
2022/03/12 02:54:29;;;;;;;11.55;7.85;;;;;;;;;;10282126;28;20027;-71
2022/03/12 02:59:29;;;;;;;14.70;9.20;;;;;;;;;;10288254;28;20022;-73
2022/03/12 03:04:37;;;;;;;12.07;10.30;;;;;;;;;;10242744;28;20035;-69
2022/03/12 03:09:38;;;;;;;14.37;12.87;;;;;;;;;;10266919;28;20042;-70
2022/03/12 03:14:44;;;;;;;17.58;9.73;;;;;;;;;;10303405;28;20736;-70
2022/03/12 03:19:45;;;;;;;10.52;8.05;;;;;;;;;;10304594;28;20027;-74
2022/03/12 03:24:45;;;;;;;11.68;7.80;;;;;;;;;;10289417;28;20023;-70
2022/03/12 03:29:45;;;;;;;18.67;10.32;;;;;;;;;;10301813;28;20027;-70
2022/03/12 03:34:46;;;;;;;14.17;12.87;;;;;;;;;;10280487;28;20551;-74
2022/03/12 03:39:46;;;;;;;14.90;11.70;;;;;;;;;;10289020;28;20073;-70
2022/03/12 03:44:46;;;;;;;20.70;15.63;;;;;;;;;;10303057;28;20652;-69
2022/03/12 03:49:47;;;;;;;20.17;15.70;;;;;;;;;;10284505;28;20565;-71
2022/03/12 03:54:47;;;;;;;12.85;11.10;;;;;;;;;;10298201;28;20509;-69
2022/03/12 03:59:47;;;;;;;21.33;16.67;;;;;;;;;;10286158;28;20089;-73
2022/03/12 04:04:48;;;;;;;17.67;10.77;;;;;;;;;;10302977;28;20038;-69
2022/03/12 04:09:49;;;;;;;13.50;11.90;;;;;;;;;;10302638;28;20525;-70
2022/03/12 04:14:50;;;;;;;16.08;10.85;;;;;;;;;;10300729;28;20058;-72
2022/03/12 04:19:51;;;;;;;14.25;9.38;;;;;;;;;;10302750;28;20023;-71
2022/03/12 04:24:52;;;;;;;14.40;11.52;;;;;;;;;;10286587;28;20054;-71
2022/03/12 04:29:52;;;;;;;19.80;13.00;;;;;;;;;;10279608;28;20023;-70
2022/03/12 04:34:52;;;;;;;13.82;11.70;;;;;;;;;;10286472;28;20285;-69
2022/03/12 04:39:53;;;;;;;20.97;10.13;;;;;;;;;;10286401;28;20393;-69
2022/03/12 04:44:53;;;;;;;16.70;14.10;;;;;;;;;;10286062;28;20088;-71
2022/03/12 04:49:53;;;;;;;24.73;17.40;;;;;;;;;;10301298;28;20512;-72
2022/03/12 04:54:54;;;;;;;16.35;10.48;;;;;;;;;;10282661;28;20100;-69
2022/03/12 04:59:54;;;;;;;22.77;16.88;;;;;;;;;;10285082;28;20110;-72
2022/03/12 05:04:54;;;;;;;34.63;21.37;;;;;;;;;;10300864;28;20096;-70
2022/03/12 05:09:55;;;;;;;28.08;20.05;;;;;;;;;;10299957;28;20503;-71
2022/03/12 05:14:56;;;;;;;24.55;16.73;;;;;;;;;;10283450;28;20050;-69
2022/03/12 05:19:57;;;;;;;25.48;22.45;;;;;;;;;;10299717;28;20043;-70
2022/03/12 05:24:57;;;;;;;22.73;18.88;;;;;;;;;;10280846;28;20513;-68
2022/03/12 05:29:57;;;;;;;30.25;23.02;;;;;;;;;;10285519;28;20038;-69
2022/03/12 05:34:57;;;;;;;22.58;17.58;;;;;;;;;;10298136;28;20018;-70
2022/03/12 05:39:58;;;;;;;24.77;21.98;;;;;;;;;;10298010;28;20022;-71
2022/03/12 05:44:58;;;;;;;36.20;20.10;;;;;;;;;;10282320;28;20138;-72
2022/03/12 05:49:59;;;;;;;27.30;18.00;;;;;;;;;;10292466;28;20062;-72
2022/03/12 05:54:59;;;;;;;33.15;15.75;;;;;;;;;;10295737;28;20416;-70
2022/03/12 06:00:02;;;;;;;16.67;11.63;;;;;;;;;;10298007;28;20022;-71
2022/03/12 06:05:02;;;;;;;20.95;11.88;;;;;;;;;;10298278;28;20023;-70
2022/03/12 06:10:02;;;;;;;25.93;13.93;;;;;;;;;;10255890;28;20027;-70
2022/03/12 06:15:04;;;;;;;26.90;11.73;;;;;;;;;;10257205;28;20306;-70
2022/03/12 06:20:05;;;;;;;25.77;14.38;;;;;;;;;;10272586;28;20289;-71
2022/03/12 06:25:09;;;;;;;27.08;13.32;;;;;;;;;;10282176;28;20027;-73
2022/03/12 06:30:10;;;;;;;26.42;12.45;;;;;;;;;;10274256;28;20037;-71
2022/03/12 06:35:12;;;;;;;24.38;11.32;;;;;;;;;;10263725;28;20082;-69
2022/03/12 06:40:14;;;;;;;17.88;9.85;;;;;;;;;;10262940;28;20065;-71
2022/03/12 06:45:16;;;;;;;19.08;9.75;;;;;;;;;;10297665;28;20030;-70
2022/03/12 06:50:19;;;;;;;21.67;7.63;;;;;;;;;;10288783;28;20026;-73
2022/03/12 06:55:21;;;;;;;15.82;7.15;;;;;;;;;;10288823;28;20029;-69
2022/03/12 07:00:23;;;;;;;14.05;7.20;;;;;;;;;;10304742;28;20022;-72
2022/03/12 07:05:24;;;;;;;13.18;7.05;;;;;;;;;;10303546;28;20031;-72
2022/03/12 07:10:24;;;;;;;14.55;7.43;;;;;;;;;;10287941;28;20034;-73
2022/03/12 07:15:25;;;;;;;11.15;5.40;;;;;;;;;;10287992;28;20050;-76
2022/03/12 07:20:26;;;;;;;10.13;5.15;;;;;;;;;;10287718;28;20775;-75
2022/03/12 07:25:27;;;;;;;13.95;6.65;;;;;;;;;;10288989;28;20022;-75
2022/03/12 07:30:28;;;;;;;16.58;5.70;;;;;;;;;;10286203;28;20477;-77
2022/03/12 07:35:28;;;;;;;14.43;5.63;;;;;;;;;;10283549;28;20368;-72
2022/03/12 07:40:28;;;;;;;9.98;4.88;;;;;;;;;;10288067;28;20023;-73
2022/03/12 07:45:29;;;;;;;13.60;4.63;;;;;;;;;;10284952;28;20572;-72
2022/03/12 07:50:29;;;;;;;9.35;5.18;;;;;;;;;;10285704;28;20088;-72
2022/03/12 07:55:30;;;;;;;8.10;4.57;;;;;;;;;;10273729;28;20469;-77
2022/03/12 08:00:31;;;;;;;13.30;6.20;;;;;;;;;;10272643;28;20054;-70
2022/03/12 08:05:32;;;;;;;11.82;5.28;;;;;;;;;;10278464;28;20022;-73
2022/03/12 08:11:24;;;;;;;13.65;6.47;;;;;;;;;;10285556;28;20089;-74
2022/03/12 08:15:57;;;;;;;12.93;6.63;;;;;;;;;;10285525;28;20050;-69
2022/03/12 08:20:57;;;;;;;10.75;6.28;;;;;;;;;;10268822;28;20035;-73
2022/03/12 08:25:58;;;;;;;12.40;6.50;;;;;;;;;;10283575;28;20022;-70
2022/03/12 08:30:58;;;;;;;15.13;7.90;;;;;;;;;;10283846;28;20496;-72
2022/03/12 08:36:00;;;;;;;8.85;6.03;;;;;;;;;;10299852;28;20033;-71
2022/03/12 08:41:02;;;;;;;17.27;6.43;;;;;;;;;;10282046;28;20583;-70
2022/03/12 08:46:03;;;;;;;12.50;6.88;;;;;;;;;;10273634;28;20484;-70
2022/03/12 08:51:04;;;;;;;12.38;6.88;;;;;;;;;;10278952;28;20031;-70
2022/03/12 08:56:05;;;;;;;14.68;7.38;;;;;;;;;;10275708;28;20027;-70
2022/03/12 09:01:06;;;;;;;12.18;6.40;;;;;;;;;;10281252;28;20430;-74
2022/03/12 09:06:07;;;;;;;11.38;5.45;;;;;;;;;;10287543;28;20030;-70
2022/03/12 09:11:07;;;;;;;21.92;8.25;;;;;;;;;;10279257;28;20019;-74
2022/03/12 09:16:08;;;;;;;12.25;7.72;;;;;;;;;;10282493;28;20386;-72
2022/03/12 09:21:08;;;;;;;12.25;7.65;;;;;;;;;;10274823;28;20182;-70
2022/03/12 09:26:09;;;;;;;14.45;8.20;;;;;;;;;;10283193;28;20039;-72
2022/03/12 09:31:10;;;;;;;17.73;6.85;;;;;;;;;;10283377;28;20018;-70
2022/03/12 09:36:10;;;;;;;14.30;6.87;;;;;;;;;;10268731;28;20030;-69
2022/03/12 09:41:11;;;;;;;18.60;7.13;;;;;;;;;;10281181;28;20725;-68
2022/03/12 09:46:12;;;;;;;13.43;6.65;;;;;;;;;;10281903;28;20269;-70
2022/03/12 09:51:14;;;;;;;12.70;6.65;;;;;;;;;;10281261;28;20026;-70
2022/03/12 09:56:15;;;;;;;11.23;5.60;;;;;;;;;;10276306;28;20034;-74
2022/03/12 10:01:15;;;;;;;8.50;5.38;;;;;;;;;;10273681;28;20042;-72
2022/03/12 10:06:16;;;;;;;5.85;4.65;;;;;;;;;;10288856;28;20489;-72
2022/03/12 10:11:18;;;;;;;9.77;4.82;;;;;;;;;;10280973;28;20473;-70
2022/03/12 10:16:18;;;;;;;8.45;5.20;;;;;;;;;;10281293;28;20046;-74
2022/03/12 10:21:20;;;;;;;6.43;4.22;;;;;;;;;;10282515;28;20039;-74
2022/03/12 10:26:20;;;;;;;7.00;4.38;;;;;;;;;;10286061;28;20031;-74
2022/03/12 10:31:21;;;;;;;11.00;4.90;;;;;;;;;;10284188;28;20027;-70
2022/03/12 10:36:21;;;;;;;7.68;4.28;;;;;;;;;;10298151;28;20084;-70
2022/03/12 10:41:27;;;;;;;7.95;4.25;;;;;;;;;;10287422;28;20039;-73
2022/03/12 10:46:28;;;;;;;4.65;3.22;;;;;;;;;;10288831;28;20038;-73
2022/03/12 10:51:39;;;;;;;7.60;4.15;;;;;;;;;;10269473;28;20031;-77
2022/03/12 10:56:50;;;;;;;6.78;4.40;;;;;;;;;;10284281;28;20085;-73
2022/03/12 11:01:59;;;;;;;9.25;4.20;;;;;;;;;;10294339;28;20034;-69
2022/03/12 11:07:20;;;;;;;6.70;4.18;;;;;;;;;;10310134;28;20086;-74
2022/03/12 11:12:30;;;;;;;15.60;3.85;;;;;;;;;;10284713;28;20019;-74
2022/03/12 11:17:39;;;;;;;11.75;4.45;;;;;;;;;;10282940;28;20046;-75
2022/03/12 11:22:40;;;;;;;7.53;4.22;;;;;;;;;;10283632;28;20101;-69
2022/03/12 11:27:41;;;;;;;7.47;3.67;;;;;;;;;;10284190;28;20026;-73
2022/03/12 11:32:44;;;;;;;9.23;3.47;;;;;;;;;;10281986;28;20068;-74
2022/03/12 11:37:44;;;;;;;7.78;3.63;;;;;;;;;;10282191;28;20519;-71
2022/03/12 11:42:45;;;;;;;7.95;3.88;;;;;;;;;;10284820;28;20035;-74
2022/03/12 11:47:46;;;;;;;10.15;4.65;;;;;;;;;;10308167;28;20030;-75
2022/03/12 11:52:46;;;;;;;14.43;5.15;;;;;;;;;;10280553;28;20031;-72
2022/03/12 11:57:47;;;;;;;13.32;4.50;;;;;;;;;;10279802;28;20018;-72
2022/03/12 12:02:48;;;;;;;10.32;4.70;;;;;;;;;;10281508;28;20050;-69
2022/03/12 12:07:51;;;;;;;9.80;5.03;;;;;;;;;;10282329;28;20045;-70
2022/03/12 12:12:51;;;;;;;6.85;3.90;;;;;;;;;;10285720;28;20031;-69
2022/03/12 12:17:52;;;;;;;7.10;4.67;;;;;;;;;;10280417;28;20069;-73
2022/03/12 12:22:52;;;;;;;6.55;5.10;;;;;;;;;;10283412;28;20426;-74
2022/03/12 12:27:53;;;;;;;12.10;5.80;;;;;;;;;;10275032;28;20085;-73
2022/03/12 12:32:54;;;;;;;11.35;5.15;;;;;;;;;;10271105;28;20122;-71
2022/03/12 12:37:57;;;;;;;19.60;5.78;;;;;;;;;;10256859;28;20478;-69
2022/03/12 12:42:58;;;;;;;5.78;4.65;;;;;;;;;;10292188;28;20061;-71
2022/03/12 12:48:06;;;;;;;8.07;5.18;;;;;;;;;;10299444;28;20090;-70
2022/03/12 12:53:13;;;;;;;8.30;4.75;;;;;;;;;;10299963;28;20034;-70
2022/03/12 12:58:14;;;;;;;15.93;5.10;;;;;;;;;;10284184;28;20026;-70
2022/03/12 13:03:16;;;;;;;10.13;5.23;;;;;;;;;;10284547;28;20472;-68
2022/03/12 13:08:17;;;;;;;8.13;5.75;;;;;;;;;;10270863;28;20037;-72
2022/03/12 13:13:18;;;;;;;12.75;5.18;;;;;;;;;;10284225;28;20048;-69
2022/03/12 13:18:22;;;;;;;9.77;5.75;;;;;;;;;;10285300;28;20074;-71
2022/03/12 13:23:25;;;;;;;10.43;6.35;;;;;;;;;;10299115;28;20816;-69
2022/03/12 13:28:41;;;;;;;7.07;5.82;;;;;;;;;;10298006;28;20027;-70
2022/03/12 13:33:42;;;;;;;13.10;5.30;;;;;;;;;;10298329;28;20081;-74
2022/03/12 13:38:42;;;;;;;11.45;6.32;;;;;;;;;;10298023;28;20093;-75
2022/03/12 13:43:43;;;;;;;9.68;7.10;;;;;;;;;;10288952;28;20432;-77
2022/03/12 13:48:56;;;;;;;9.87;6.53;;;;;;;;;;10275417;28;20508;-72
2022/03/12 13:53:57;;;;;;;8.98;5.40;;;;;;;;;;10285862;28;20137;-73
2022/03/12 13:59:08;;;;;;;10.68;6.32;;;;;;;;;;10281141;28;20453;-70
2022/03/12 14:04:19;;;;;;;10.38;6.65;;;;;;;;;;10280975;28;20465;-69
2022/03/12 14:09:21;;;;;;;9.38;5.80;;;;;;;;;;10297102;28;20512;-70
2022/03/12 14:14:22;;;;;;;8.25;5.35;;;;;;;;;;10268774;28;20121;-70
2022/03/12 14:19:23;;;;;;;15.68;6.90;;;;;;;;;;10275029;28;20508;-72
2022/03/12 14:24:30;;;;;;;15.30;6.85;;;;;;;;;;10297265;28;20085;-69
2022/03/12 14:29:34;;;;;;;7.75;5.20;;;;;;;;;;10281213;28;20085;-74
2022/03/12 14:34:35;;;;;;;9.70;6.65;;;;;;;;;;10258234;28;20489;-74
2022/03/12 14:39:36;;;;;;;7.20;5.85;;;;;;;;;;10297344;28;20061;-74
2022/03/12 14:44:41;;;;;;;13.23;5.25;;;;;;;;;;10270014;28;20031;-70
2022/03/12 14:49:48;;;;;;;9.38;6.68;;;;;;;;;;10256244;28;20042;-75
2022/03/12 14:54:49;;;;;;;15.68;6.57;;;;;;;;;;10289603;28;20031;-74
2022/03/12 14:59:51;;;;;;;9.07;7.07;;;;;;;;;;10278817;28;20500;-71
2022/03/12 15:04:51;;;;;;;9.27;7.45;;;;;;;;;;10279885;28;20120;-74
2022/03/12 15:10:00;;;;;;;12.97;7.57;;;;;;;;;;10285434;28;20027;-74
2022/03/12 15:15:14;;;;;;;12.52;8.00;;;;;;;;;;10303939;28;20051;-73
2022/03/12 15:20:25;;;;;;;8.82;5.35;;;;;;;;;;10299428;28;20027;-74
2022/03/12 15:25:29;;;;;;;10.45;6.93;;;;;;;;;;10269800;28;20034;-74
2022/03/12 15:30:31;;;;;;;8.57;5.45;;;;;;;;;;10277204;28;20382;-74
2022/03/12 15:35:42;;;;;;;8.50;5.80;;;;;;;;;;10295491;28;20401;-74
2022/03/12 15:40:43;;;;;;;9.73;8.05;;;;;;;;;;10273068;28;20031;-74
2022/03/12 15:45:44;;;;;;;9.70;8.88;;;;;;;;;;10287851;28;20055;-72
2022/03/12 15:50:44;;;;;;;8.20;6.13;;;;;;;;;;10280786;28;20173;-74
2022/03/12 15:55:44;;;;;;;17.80;10.18;;;;;;;;;;10286890;28;20301;-74
2022/03/12 16:00:45;;;;;;;11.15;7.57;;;;;;;;;;10287207;28;20696;-75
2022/03/12 16:05:45;;;;;;;9.80;8.90;;;;;;;;;;10301933;28;20030;-74
2022/03/12 16:10:45;;;;;;;10.73;6.87;;;;;;;;;;10284501;28;20304;-70
2022/03/12 16:15:54;;;;;;;12.55;8.77;;;;;;;;;;10280522;28;20050;-74
2022/03/12 16:20:57;;;;;;;12.63;9.57;;;;;;;;;;10279799;28;20027;-73
2022/03/12 16:26:02;;;;;;;19.88;16.88;;;;;;;;;;10281449;28;20038;-75
2022/03/12 16:31:02;;;;;;;14.93;12.57;;;;;;;;;;10296947;28;20023;-74
2022/03/12 16:36:03;;;;;;;14.07;6.80;;;;;;;;;;10305971;28;20034;-72
2022/03/12 16:41:04;;;;;;;10.20;6.85;;;;;;;;;;10284581;28;20297;-74
2022/03/12 16:46:04;;;;;;;9.70;7.40;;;;;;;;;;10283234;28;20401;-69
2022/03/12 16:51:05;;;;;;;8.30;7.00;;;;;;;;;;10284588;28;20033;-72
2022/03/12 16:56:06;;;;;;;9.95;7.65;;;;;;;;;;10284462;28;20046;-74
2022/03/12 17:01:06;;;;;;;14.88;9.75;;;;;;;;;;10283304;28;20033;-68
2022/03/12 17:06:06;;;;;;;18.08;8.25;;;;;;;;;;10299886;28;20019;-73
2022/03/12 17:11:07;;;;;;;11.35;9.50;;;;;;;;;;10299454;28;20089;-72
2022/03/12 17:16:08;;;;;;;12.73;10.68;;;;;;;;;;10278287;28;20561;-74
2022/03/12 17:21:08;;;;;;;21.05;10.85;;;;;;;;;;10278209;28;20045;-71
2022/03/12 17:26:12;;;;;;;19.05;11.75;;;;;;;;;;10297933;28;20042;-69
2022/03/12 17:31:13;;;;;;;20.60;10.98;;;;;;;;;;10250582;28;20018;-72
2022/03/12 17:36:13;;;;;;;15.20;12.35;;;;;;;;;;10296398;28;20027;-74
2022/03/12 17:41:14;;;;;;;19.50;11.20;;;;;;;;;;10298538;28;20511;-72
2022/03/12 17:46:14;;;;;;;23.50;14.15;;;;;;;;;;10266080;28;20034;-72
2022/03/12 17:51:16;;;;;;;28.87;9.47;;;;;;;;;;10281700;28;20033;-73
2022/03/12 17:56:16;;;;;;;12.23;11.00;;;;;;;;;;10282089;28;20278;-73
2022/03/12 18:01:17;;;;;;;18.45;12.10;;;;;;;;;;10298258;28;20113;-75
2022/03/12 18:06:17;;;;;;;28.33;18.00;;;;;;;;;;10280497;28;20035;-73
2022/03/12 18:11:20;;;;;;;29.38;20.15;;;;;;;;;;10296187;28;20030;-75
2022/03/12 18:16:21;;;;;;;25.15;14.75;;;;;;;;;;10267912;28;20055;-73
2022/03/12 18:21:22;;;;;;;21.80;17.25;;;;;;;;;;10298047;28;20132;-75
2022/03/12 18:26:22;;;;;;;27.40;18.13;;;;;;;;;;10295293;28;20110;-75
2022/03/12 18:31:23;;;;;;;22.27;14.63;;;;;;;;;;10280999;28;20479;-75
2022/03/12 18:36:23;;;;;;;25.63;16.73;;;;;;;;;;10283183;28;20015;-70
2022/03/12 18:41:24;;;;;;;22.95;18.00;;;;;;;;;;10297255;28;20031;-71
2022/03/12 18:46:25;;;;;;;18.08;13.77;;;;;;;;;;10289258;28;20560;-71
2022/03/12 18:51:25;;;;;;;27.35;23.77;;;;;;;;;;10271834;28;20031;-69
2022/03/12 18:56:29;;;;;;;24.75;19.92;;;;;;;;;;10288025;28;20029;-70
2022/03/12 19:01:30;;;;;;;26.88;18.35;;;;;;;;;;10292332;28;20034;-69
2022/03/12 19:06:35;;;;;;;31.77;16.85;;;;;;;;;;10304776;28;20031;-70
2022/03/12 19:11:37;;;;;;;22.30;19.90;;;;;;;;;;10303331;28;20058;-75
2022/03/12 19:16:40;;;;;;;33.10;20.55;;;;;;;;;;10283867;28;20117;-70
2022/03/12 19:21:40;;;;;;;31.00;22.58;;;;;;;;;;10285590;28;20029;-70
2022/03/12 19:26:47;;;;;;;25.85;18.38;;;;;;;;;;10285198;28;20060;-70
2022/03/12 19:31:48;;;;;;;28.37;19.37;;;;;;;;;;10308632;28;20037;-70
2022/03/12 19:36:49;;;;;;;33.42;21.50;;;;;;;;;;10284832;28;20019;-70
2022/03/12 19:41:52;;;;;;;39.58;23.63;;;;;;;;;;10308465;28;20416;-70
2022/03/12 19:46:52;;;;;;;36.30;25.13;;;;;;;;;;10297946;28;20019;-74
2022/03/12 19:51:53;;;;;;;38.07;24.37;;;;;;;;;;10283051;28;20027;-74
2022/03/12 19:56:53;;;;;;;30.15;20.60;;;;;;;;;;10283136;28;20015;-71
2022/03/12 20:01:53;;;;;;;38.50;24.30;;;;;;;;;;10283317;28;20022;-74
2022/03/12 20:06:56;;;;;;;27.25;24.42;;;;;;;;;;10302271;28;20027;-69
2022/03/12 20:11:59;;;;;;;31.98;29.33;;;;;;;;;;10296745;28;20035;-73
2022/03/12 20:16:59;;;;;;;31.50;28.95;;;;;;;;;;10301636;28;20050;-73
2022/03/12 20:22:02;;;;;;;37.30;29.40;;;;;;;;;;10301574;28;20031;-70
2022/03/12 20:27:05;;;;;;;36.65;28.45;;;;;;;;;;10285697;28;20528;-70
2022/03/12 20:32:06;;;;;;;23.25;20.77;;;;;;;;;;10280733;28;20097;-70
2022/03/12 20:37:12;;;;;;;41.10;37.75;;;;;;;;;;10279420;28;20027;-74
2022/03/12 20:42:13;;;;;;;29.63;23.08;;;;;;;;;;10266479;28;20113;-71
2022/03/12 20:47:14;;;;;;;36.03;30.80;;;;;;;;;;10271835;28;20078;-77
2022/03/12 20:52:15;;;;;;;30.65;27.45;;;;;;;;;;10285173;28;20057;-71
2022/03/12 20:57:16;;;;;;;30.63;23.30;;;;;;;;;;10276727;28;20050;-70
2022/03/12 21:02:16;;;;;;;40.45;36.60;;;;;;;;;;10261269;28;20095;-72
2022/03/12 21:07:16;;;;;;;31.75;28.25;;;;;;;;;;10281528;28;20497;-73
2022/03/12 21:12:17;;;;;;;36.03;32.65;;;;;;;;;;10264500;28;20525;-72
2022/03/12 21:17:19;;;;;;;35.42;31.83;;;;;;;;;;10245595;28;20403;-70
2022/03/12 21:22:19;;;;;;;42.58;38.17;;;;;;;;;;10289050;28;20413;-70
2022/03/12 21:27:19;;;;;;;37.20;33.17;;;;;;;;;;10284410;28;20054;-71
2022/03/12 21:32:21;;;;;;;41.78;29.48;;;;;;;;;;10245554;28;20381;-70
2022/03/12 21:37:22;;;;;;;38.20;29.27;;;;;;;;;;10260113;28;20019;-71
2022/03/12 21:42:24;;;;;;;41.70;29.13;;;;;;;;;;10281594;28;20023;-68
2022/03/12 21:47:24;;;;;;;33.55;23.30;;;;;;;;;;10301761;28;20022;-72
2022/03/12 21:52:24;;;;;;;30.33;22.30;;;;;;;;;;10284681;28;20077;-72
2022/03/12 21:57:25;;;;;;;26.93;17.27;;;;;;;;;;10299872;28;20481;-71
2022/03/12 22:02:25;;;;;;;33.85;25.30;;;;;;;;;;10294196;28;20409;-75
2022/03/12 22:07:26;;;;;;;30.70;27.15;;;;;;;;;;10283032;28;20027;-69
2022/03/12 22:12:27;;;;;;;47.53;31.92;;;;;;;;;;10282883;28;20422;-70
2022/03/12 22:17:27;;;;;;;33.88;24.42;;;;;;;;;;10283378;28;20056;-69
2022/03/12 22:22:28;;;;;;;37.92;25.10;;;;;;;;;;10258897;28;20027;-70
2022/03/12 22:27:29;;;;;;;35.33;24.48;;;;;;;;;;10259395;28;20027;-71
2022/03/12 22:32:29;;;;;;;33.92;30.08;;;;;;;;;;10262168;28;20030;-71
2022/03/12 22:37:31;;;;;;;34.57;24.07;;;;;;;;;;10282460;28;20413;-72
2022/03/12 22:42:32;;;;;;;34.17;21.65;;;;;;;;;;10298727;28;20262;-73
2022/03/12 22:47:35;;;;;;;32.30;28.38;;;;;;;;;;10298614;28;20031;-71
2022/03/12 22:52:36;;;;;;;25.40;18.02;;;;;;;;;;10298240;28;20026;-71
2022/03/12 22:57:37;;;;;;;32.30;22.13;;;;;;;;;;10299248;28;20025;-75
2022/03/12 23:02:42;;;;;;;36.45;30.42;;;;;;;;;;10282265;28;20491;-70
2022/03/12 23:13:01;;;;;;;29.05;17.23;;;;;;;;;;10283414;28;20441;-70
2022/03/12 23:18:03;;;;;;;24.42;14.15;;;;;;;;;;10297908;28;20485;-72
2022/03/12 23:23:04;;;;;;;23.45;14.13;;;;;;;;;;10297889;28;20113;-73
2022/03/12 23:28:08;;;;;;;17.55;13.52;;;;;;;;;;10282160;28;20624;-73
2022/03/12 23:33:09;;;;;;;20.63;14.23;;;;;;;;;;10304731;28;20023;-69
2022/03/12 23:38:09;;;;;;;37.45;12.77;;;;;;;;;;10288249;28;20026;-70
2022/03/12 23:43:16;;;;;;;20.15;13.98;;;;;;;;;;10288611;28;20092;-76
2022/03/12 23:48:17;;;;;;;19.52;15.40;;;;;;;;;;10304571;28;20034;-70
2022/03/12 23:53:17;;;;;;;28.40;25.38;;;;;;;;;;10287969;28;20027;-76
2022/03/12 23:58:18;;;;;;;27.05;19.23;;;;;;;;;;10288134;28;20022;-69
